Time;durP1;ratioP1;P1;durP2;ratioP2;P2;SDS_P1;SDS_P2;PMS_P1;PMS_P2;Temp;Humidity;BMP_temperature;BMP_pressure;BME280_temperature;BME280_humidity;BME280_pressure;Samples;Min_cycle;Max_cycle;Signal;HPM_P1;HPM_P2
2021/09/06 00:01:24;;;;;;;0.63;0.63;;;18.10;99.90;;;;;;4953897;29;20300;-85
2021/09/06 00:03:49;;;;;;;0.73;0.40;;;17.90;99.90;;;;;;4954970;28;20602;-84
2021/09/06 00:06:15;;;;;;;0.57;0.57;;;17.80;99.90;;;;;;4955066;29;20193;-85
2021/09/06 00:08:41;;;;;;;1.03;0.50;;;17.80;99.90;;;;;;4954909;29;20189;-86
2021/09/06 00:11:11;;;;;;;0.80;0.80;;;17.80;99.90;;;;;;4952549;29;20196;-85
2021/09/06 00:13:38;;;;;;;1.07;0.67;;;17.80;99.90;;;;;;4955992;28;20185;-84
2021/09/06 00:16:04;;;;;;;0.50;0.50;;;17.60;99.90;;;;;;4955104;29;20331;-86
2021/09/06 00:18:30;;;;;;;0.80;0.80;;;17.60;99.90;;;;;;4955182;29;20189;-85
2021/09/06 00:20:57;;;;;;;1.13;0.90;;;17.40;99.90;;;;;;4954438;29;20205;-85
2021/09/06 00:23:24;;;;;;;0.57;0.57;;;17.40;99.90;;;;;;4955949;29;20312;-85
2021/09/06 00:25:50;;;;;;;0.47;0.47;;;17.40;99.90;;;;;;4954483;28;20267;-85
2021/09/06 00:28:16;;;;;;;0.50;0.50;;;17.40;99.90;;;;;;4954574;29;20654;-85
2021/09/06 00:30:42;;;;;;;0.63;0.63;;;17.40;99.90;;;;;;4948182;29;20204;-85
2021/09/06 00:33:08;;;;;;;0.60;0.60;;;17.50;99.90;;;;;;4953994;29;20282;-86
2021/09/06 00:35:34;;;;;;;1.07;0.57;;;17.60;99.90;;;;;;4954668;28;20280;-85
2021/09/06 00:38:00;;;;;;;0.83;0.83;;;17.50;99.90;;;;;;4953949;28;20197;-85
2021/09/06 00:40:26;;;;;;;1.07;1.00;;;17.60;99.90;;;;;;4954237;29;20215;-85
2021/09/06 00:42:51;;;;;;;1.37;0.97;;;17.60;99.90;;;;;;4954281;29;20270;-86
2021/09/06 00:45:17;;;;;;;0.40;0.40;;;17.60;99.90;;;;;;4954356;29;20677;-84
2021/09/06 00:47:43;;;;;;;0.63;0.33;;;17.60;99.90;;;;;;4954586;29;20255;-85
2021/09/06 00:50:13;;;;;;;0.60;0.60;;;17.70;99.90;;;;;;4954223;29;20646;-85
2021/09/06 00:52:41;;;;;;;0.53;0.53;;;17.70;99.90;;;;;;4952087;28;20189;-85
2021/09/06 00:55:08;;;;;;;0.60;0.60;;;17.50;99.90;;;;;;4954902;28;20287;-85
2021/09/06 00:57:34;;;;;;;0.57;0.47;;;17.50;99.90;;;;;;4950211;29;20199;-84
2021/09/06 01:00:02;;;;;;;1.57;0.40;;;17.40;99.90;;;;;;4953896;29;20192;-85
2021/09/06 01:02:28;;;;;;;0.67;0.67;;;17.40;99.90;;;;;;4954310;28;20183;-85
2021/09/06 01:04:53;;;;;;;2.53;0.90;;;17.40;99.90;;;;;;4955021;29;20310;-85
2021/09/06 01:07:19;;;;;;;0.57;0.57;;;17.30;99.90;;;;;;4954522;29;20631;-85
2021/09/06 01:09:45;;;;;;;1.50;0.67;;;17.30;99.90;;;;;;4953721;29;20283;-85
2021/09/06 01:12:11;;;;;;;1.90;1.30;;;17.20;99.90;;;;;;4953896;29;20193;-85
2021/09/06 01:14:37;;;;;;;0.73;0.73;;;17.10;99.90;;;;;;4953355;28;20303;-85
2021/09/06 01:17:04;;;;;;;0.60;0.27;;;17.10;99.90;;;;;;4955315;28;20192;-85
2021/09/06 01:19:29;;;;;;;1.63;1.10;;;17.10;99.90;;;;;;4950791;29;20548;-84
2021/09/06 01:21:55;;;;;;;0.80;0.80;;;17.10;99.90;;;;;;4967983;28;20268;-85
2021/09/06 01:24:20;;;;;;;0.40;0.40;;;17.10;99.90;;;;;;4951500;28;20236;-85
2021/09/06 01:26:47;;;;;;;0.63;0.60;;;17.20;99.90;;;;;;4953386;29;20239;-85
2021/09/06 01:29:13;;;;;;;0.43;0.43;;;17.30;99.90;;;;;;4954780;29;20201;-85
2021/09/06 01:31:39;;;;;;;0.77;0.77;;;17.40;99.90;;;;;;4953437;29;20658;-85
2021/09/06 01:34:05;;;;;;;1.70;1.53;;;17.50;99.90;;;;;;4952728;28;20213;-85
2021/09/06 01:36:31;;;;;;;0.53;0.53;;;17.50;99.90;;;;;;4955030;28;20185;-85
2021/09/06 01:38:56;;;;;;;0.83;0.83;;;17.60;99.90;;;;;;4954563;29;20207;-85
2021/09/06 01:41:22;;;;;;;0.47;0.47;;;17.70;99.90;;;;;;4954751;29;20678;-85
2021/09/06 01:43:47;;;;;;;0.13;0.13;;;17.80;99.90;;;;;;4952755;28;20593;-84
2021/09/06 01:46:13;;;;;;;0.37;0.37;;;17.80;99.90;;;;;;4949889;29;20220;-85
2021/09/06 01:48:39;;;;;;;2.53;0.67;;;17.90;99.90;;;;;;4953881;28;20239;-85
2021/09/06 01:51:04;;;;;;;0.53;0.53;;;17.80;99.90;;;;;;4953325;28;20192;-85
2021/09/06 01:53:30;;;;;;;0.67;0.40;;;17.80;99.90;;;;;;4954452;29;20200;-85
2021/09/06 01:55:56;;;;;;;0.47;0.47;;;17.90;99.90;;;;;;4954271;28;20208;-85
2021/09/06 01:58:21;;;;;;;0.73;0.53;;;17.80;99.90;;;;;;4952899;28;20259;-85
2021/09/06 02:00:47;;;;;;;0.73;0.47;;;17.80;99.90;;;;;;4952852;29;20225;-85
2021/09/06 02:03:13;;;;;;;0.63;0.63;;;17.80;99.90;;;;;;4952723;29;20249;-85
2021/09/06 02:05:38;;;;;;;0.50;0.50;;;17.80;99.90;;;;;;4952933;28;20206;-85
2021/09/06 02:08:04;;;;;;;0.90;0.70;;;17.80;99.90;;;;;;4953191;29;20189;-85
2021/09/06 02:10:30;;;;;;;0.70;0.70;;;17.70;99.90;;;;;;4949530;29;20201;-85
2021/09/06 02:12:55;;;;;;;0.63;0.63;;;17.60;99.90;;;;;;4953224;29;20192;-85
2021/09/06 02:15:21;;;;;;;0.60;0.50;;;17.40;99.90;;;;;;4952760;28;20300;-85
2021/09/06 02:17:46;;;;;;;0.57;0.57;;;17.30;99.90;;;;;;4952994;29;20221;-84
2021/09/06 02:20:12;;;;;;;0.33;0.33;;;17.20;99.90;;;;;;4945375;29;20693;-85
2021/09/06 02:22:38;;;;;;;1.20;0.80;;;17.20;99.90;;;;;;4965892;28;20185;-85
2021/09/06 02:25:04;;;;;;;1.97;0.43;;;17.20;99.90;;;;;;4951866;28;20219;-85
2021/09/06 02:27:31;;;;;;;0.60;0.60;;;17.20;99.90;;;;;;4952716;29;20192;-85
2021/09/06 02:29:57;;;;;;;0.43;0.43;;;17.30;99.90;;;;;;4952480;29;20197;-85
2021/09/06 02:32:22;;;;;;;0.30;0.30;;;17.30;99.90;;;;;;4953730;29;20567;-85
2021/09/06 02:34:48;;;;;;;1.00;0.53;;;17.40;99.90;;;;;;4949829;29;20555;-85
2021/09/06 02:37:13;;;;;;;1.37;0.50;;;17.40;99.90;;;;;;4952465;29;20196;-84
2021/09/06 02:39:39;;;;;;;0.57;0.53;;;17.30;99.90;;;;;;4947150;29;20189;-84
2021/09/06 02:42:05;;;;;;;0.47;0.47;;;17.40;99.90;;;;;;4944688;28;20219;-84
2021/09/06 02:44:31;;;;;;;1.00;0.80;;;17.40;99.90;;;;;;4948113;28;20213;-84
2021/09/06 02:46:57;;;;;;;0.30;0.30;;;17.40;99.90;;;;;;4945579;28;20179;-84
2021/09/06 02:49:23;;;;;;;1.37;0.70;;;17.20;99.90;;;;;;4942816;28;20189;-84
2021/09/06 02:51:49;;;;;;;0.80;0.53;;;17.00;99.90;;;;;;4952034;29;20726;-84
2021/09/06 02:54:16;;;;;;;0.90;0.87;;;16.80;99.90;;;;;;4951341;28;20582;-84
2021/09/06 02:56:42;;;;;;;0.30;0.30;;;16.80;99.90;;;;;;4952062;29;20185;-84
2021/09/06 02:59:08;;;;;;;1.33;1.07;;;16.90;99.90;;;;;;4951459;29;20212;-85
2021/09/06 03:01:33;;;;;;;1.00;0.90;;;17.00;99.90;;;;;;4953272;28;20291;-84
2021/09/06 03:03:59;;;;;;;1.00;1.00;;;17.10;99.90;;;;;;4955274;29;20225;-84
2021/09/06 03:06:24;;;;;;;0.57;0.30;;;17.20;99.90;;;;;;4956730;29;20267;-84
2021/09/06 03:08:50;;;;;;;1.17;0.73;;;17.20;99.90;;;;;;4954322;29;20236;-84
2021/09/06 03:11:22;;;;;;;2.47;1.00;;;17.30;99.90;;;;;;4957126;29;20615;-84
2021/09/06 03:13:48;;;;;;;0.43;0.43;;;17.30;99.90;;;;;;4955149;28;20181;-84
2021/09/06 03:16:13;;;;;;;2.17;0.77;;;17.30;99.90;;;;;;4955578;29;20189;-84
2021/09/06 03:18:39;;;;;;;0.70;0.70;;;17.20;99.90;;;;;;4955862;28;20240;-84
2021/09/06 03:21:04;;;;;;;0.53;0.53;;;17.10;99.90;;;;;;4955206;29;20295;-84
2021/09/06 03:23:30;;;;;;;0.53;0.53;;;17.10;99.90;;;;;;4955480;29;20558;-83
2021/09/06 03:25:56;;;;;;;1.70;0.53;;;17.20;99.90;;;;;;4955403;28;20205;-84
2021/09/06 03:28:21;;;;;;;1.40;0.87;;;17.10;99.90;;;;;;4953939;29;20615;-84
2021/09/06 03:30:47;;;;;;;1.10;0.70;;;17.10;99.90;;;;;;4954850;29;20193;-84
2021/09/06 03:33:14;;;;;;;1.60;0.70;;;17.00;99.90;;;;;;4954968;29;20189;-83
2021/09/06 03:35:42;;;;;;;2.23;0.80;;;16.90;99.90;;;;;;4955003;29;20208;-84
2021/09/06 03:38:07;;;;;;;0.77;0.70;;;16.70;99.90;;;;;;4955340;29;20244;-84
2021/09/06 03:40:33;;;;;;;0.87;0.87;;;16.60;99.90;;;;;;4955919;28;20216;-84
2021/09/06 03:42:58;;;;;;;0.37;0.37;;;16.50;99.90;;;;;;4954807;29;20993;-85
2021/09/06 03:45:24;;;;;;;0.43;0.33;;;16.60;99.90;;;;;;4955228;28;20219;-84
2021/09/06 03:47:50;;;;;;;0.40;0.40;;;16.60;99.90;;;;;;4954896;29;20603;-84
2021/09/06 03:50:15;;;;;;;0.83;0.70;;;16.60;99.90;;;;;;4954602;29;20193;-84
2021/09/06 03:52:41;;;;;;;0.63;0.43;;;16.70;99.90;;;;;;4947615;29;20204;-85
2021/09/06 03:55:07;;;;;;;0.33;0.33;;;16.80;99.90;;;;;;4951884;29;20304;-84
2021/09/06 03:57:32;;;;;;;0.43;0.43;;;16.80;99.90;;;;;;4954298;29;20193;-84
2021/09/06 03:59:58;;;;;;;0.67;0.60;;;16.90;99.90;;;;;;4954967;29;20192;-84
2021/09/06 04:02:23;;;;;;;0.50;0.50;;;16.90;99.90;;;;;;4954826;29;20224;-84
2021/09/06 04:04:50;;;;;;;0.23;0.23;;;16.80;99.90;;;;;;4956117;28;20257;-84
2021/09/06 04:07:16;;;;;;;2.40;0.50;;;16.80;99.90;;;;;;4951591;29;20631;-84
2021/09/06 04:09:41;;;;;;;0.50;0.50;;;16.90;99.90;;;;;;4951809;29;20280;-85
2021/09/06 04:12:07;;;;;;;0.20;0.20;;;16.90;99.90;;;;;;4954321;28;20193;-85
2021/09/06 04:14:34;;;;;;;0.83;0.83;;;16.90;99.90;;;;;;4953826;28;20208;-86
2021/09/06 04:17:00;;;;;;;1.17;0.87;;;17.00;99.90;;;;;;4955922;29;20714;-85
2021/09/06 04:19:30;;;;;;;0.93;0.83;;;17.00;99.90;;;;;;4955719;29;20196;-85
2021/09/06 04:21:57;;;;;;;0.70;0.70;;;17.00;99.90;;;;;;4954070;29;20201;-85
2021/09/06 04:24:23;;;;;;;0.77;0.60;;;16.90;99.90;;;;;;4955523;28;20219;-84
2021/09/06 04:26:50;;;;;;;1.17;1.03;;;16.90;99.90;;;;;;4954796;29;20240;-85
2021/09/06 04:29:16;;;;;;;1.77;0.73;;;16.90;99.90;;;;;;4954478;28;20628;-85
2021/09/06 04:31:42;;;;;;;0.73;0.73;;;16.90;99.90;;;;;;4954285;29;20191;-85
2021/09/06 04:34:07;;;;;;;0.87;0.87;;;16.80;99.90;;;;;;4953529;29;20216;-84
2021/09/06 04:36:33;;;;;;;0.53;0.53;;;16.80;99.90;;;;;;4983345;28;20563;-85
2021/09/06 04:38:59;;;;;;;0.83;0.83;;;16.80;99.90;;;;;;4954507;29;20185;-85
2021/09/06 04:41:25;;;;;;;3.73;0.87;;;16.70;99.90;;;;;;4949127;29;20324;-84
2021/09/06 04:43:50;;;;;;;1.10;1.00;;;16.70;99.90;;;;;;4953535;28;20638;-84
2021/09/06 04:46:16;;;;;;;2.27;1.43;;;16.80;99.90;;;;;;4953811;28;20188;-85
2021/09/06 04:48:42;;;;;;;2.20;0.83;;;16.80;99.90;;;;;;4956799;28;20181;-85
2021/09/06 04:51:07;;;;;;;1.33;0.80;;;16.70;99.90;;;;;;4954350;29;20729;-84
2021/09/06 04:53:33;;;;;;;0.60;0.60;;;16.70;99.90;;;;;;4953523;29;20188;-86
2021/09/06 04:55:58;;;;;;;0.67;0.67;;;16.60;99.90;;;;;;4954910;29;20322;-84
2021/09/06 04:58:24;;;;;;;3.60;1.30;;;16.60;99.90;;;;;;4953867;29;20181;-84
2021/09/06 05:00:50;;;;;;;1.10;0.60;;;16.50;99.90;;;;;;4954808;29;20219;-85
2021/09/06 05:03:15;;;;;;;0.80;0.80;;;16.50;99.90;;;;;;4954080;29;20188;-84
2021/09/06 05:05:41;;;;;;;1.80;1.17;;;16.50;99.90;;;;;;4953374;29;20205;-84
2021/09/06 05:08:06;;;;;;;2.67;0.50;;;16.50;99.90;;;;;;4951158;29;20223;-84
2021/09/06 05:10:32;;;;;;;0.63;0.63;;;16.50;99.90;;;;;;4951501;29;20567;-85
2021/09/06 05:12:58;;;;;;;0.40;0.40;;;16.50;99.90;;;;;;4952417;28;20186;-86
2021/09/06 05:15:24;;;;;;;1.60;0.93;;;16.50;99.90;;;;;;4953468;28;20203;-84
2021/09/06 05:17:49;;;;;;;0.40;0.40;;;16.60;99.90;;;;;;4948927;29;20539;-83
2021/09/06 05:20:15;;;;;;;0.77;0.73;;;16.60;99.90;;;;;;4954409;29;20203;-83
2021/09/06 05:22:40;;;;;;;1.37;1.23;;;16.70;99.90;;;;;;4956793;29;20192;-83
2021/09/06 05:25:07;;;;;;;1.03;0.97;;;16.70;99.90;;;;;;4950931;28;20213;-83
2021/09/06 05:27:33;;;;;;;0.67;0.57;;;16.80;99.90;;;;;;4955059;29;20288;-83
2021/09/06 05:29:58;;;;;;;1.20;1.10;;;16.90;99.90;;;;;;4957312;28;20227;-84
2021/09/06 05:32:24;;;;;;;0.57;0.57;;;16.90;99.90;;;;;;4953027;29;20188;-84
2021/09/06 05:34:50;;;;;;;2.20;1.20;;;17.00;99.90;;;;;;4952212;29;20236;-84
2021/09/06 05:37:15;;;;;;;0.40;0.40;;;17.00;99.90;;;;;;4954508;28;20665;-84
2021/09/06 05:39:41;;;;;;;0.40;0.40;;;17.00;99.90;;;;;;4953229;29;20189;-85
2021/09/06 05:42:07;;;;;;;0.93;0.60;;;16.90;99.90;;;;;;4954340;28;20259;-84
2021/09/06 05:44:32;;;;;;;0.60;0.60;;;17.10;99.90;;;;;;4953163;28;20216;-85
2021/09/06 05:47:00;;;;;;;0.80;0.80;;;17.20;99.90;;;;;;4950398;28;20617;-85
2021/09/06 05:49:26;;;;;;;0.67;0.63;;;17.30;99.90;;;;;;4953318;29;20216;-84
2021/09/06 05:51:51;;;;;;;0.50;0.50;;;17.40;99.90;;;;;;4954373;29;20196;-85
2021/09/06 05:54:17;;;;;;;0.63;0.63;;;17.40;99.90;;;;;;4954092;28;20221;-84
2021/09/06 05:56:43;;;;;;;0.60;0.60;;;17.40;99.90;;;;;;4952477;29;20264;-84
2021/09/06 05:59:08;;;;;;;0.60;0.60;;;17.50;99.90;;;;;;4953955;29;20192;-84
2021/09/06 06:01:34;;;;;;;1.63;0.60;;;17.50;99.90;;;;;;4953291;28;20220;-85
2021/09/06 06:04:00;;;;;;;0.83;0.60;;;17.60;99.90;;;;;;4953560;28;20220;-83
2021/09/06 06:06:26;;;;;;;2.67;0.60;;;17.70;99.90;;;;;;4954299;29;20194;-84
2021/09/06 06:08:52;;;;;;;1.57;1.47;;;17.80;99.90;;;;;;4952899;29;20651;-85
2021/09/06 06:11:17;;;;;;;1.10;1.00;;;17.80;99.90;;;;;;4952831;29;20196;-85
2021/09/06 06:13:43;;;;;;;1.57;0.77;;;17.80;99.90;;;;;;4952151;28;20196;-84
2021/09/06 06:16:09;;;;;;;1.77;1.00;;;17.90;99.90;;;;;;4952986;29;20201;-84
2021/09/06 06:18:34;;;;;;;1.07;1.07;;;17.90;99.90;;;;;;4952593;29;20189;-84
2021/09/06 06:21:00;;;;;;;0.70;0.70;;;18.10;99.90;;;;;;4972302;28;20209;-84
2021/09/06 06:23:26;;;;;;;0.47;0.47;;;18.20;99.90;;;;;;4953886;28;20275;-84
2021/09/06 06:25:52;;;;;;;2.93;0.57;;;18.30;99.90;;;;;;4947615;28;20208;-83
2021/09/06 06:28:17;;;;;;;1.17;0.90;;;18.40;99.90;;;;;;4952732;29;20201;-83
2021/09/06 06:30:43;;;;;;;1.03;1.03;;;18.40;99.90;;;;;;4951084;28;20203;-83
2021/09/06 06:33:08;;;;;;;2.77;0.87;;;18.50;99.90;;;;;;4952971;29;20193;-84
2021/09/06 06:35:37;;;;;;;1.37;1.27;;;18.60;99.90;;;;;;4956660;28;20209;-85
2021/09/06 06:38:14;;;;;;;1.33;1.23;;;18.60;99.90;;;;;;4956941;29;20616;-87
2021/09/06 06:40:47;;;;;;;2.63;0.83;;;18.80;99.90;;;;;;4956104;29;20224;-87
2021/09/06 06:43:13;;;;;;;0.73;0.70;;;19.00;99.90;;;;;;4958215;28;20180;-87
2021/09/06 06:45:38;;;;;;;0.53;0.53;;;19.10;99.90;;;;;;4963277;28;20651;-87
2021/09/06 06:48:04;;;;;;;0.97;0.97;;;19.30;99.90;;;;;;4956176;29;20271;-86
2021/09/06 06:50:29;;;;;;;0.93;0.40;;;19.50;99.90;;;;;;4955839;29;20196;-84
2021/09/06 06:52:55;;;;;;;0.67;0.67;;;19.70;99.90;;;;;;4956461;28;20224;-88
2021/09/06 06:55:23;;;;;;;0.67;0.67;;;19.80;99.90;;;;;;4956594;29;20201;-87
2021/09/06 06:57:49;;;;;;;1.33;1.07;;;19.90;99.90;;;;;;4956471;29;20186;-87
2021/09/06 07:00:15;;;;;;;0.50;0.50;;;20.10;99.90;;;;;;4972780;28;20193;-87
2021/09/06 07:02:41;;;;;;;0.60;0.57;;;20.20;99.90;;;;;;4956642;29;20213;-87
2021/09/06 07:05:07;;;;;;;0.90;0.90;;;20.40;99.90;;;;;;4956477;29;20256;-87
2021/09/06 07:07:33;;;;;;;3.47;0.80;;;20.50;99.90;;;;;;4956669;29;20536;-87
2021/09/06 07:09:59;;;;;;;1.47;0.37;;;20.60;99.90;;;;;;4956763;29;20185;-87
2021/09/06 07:12:25;;;;;;;0.50;0.50;;;20.70;99.90;;;;;;4956195;29;20195;-87
2021/09/06 07:14:51;;;;;;;0.70;0.70;;;20.80;99.90;;;;;;4957187;28;20667;-87
2021/09/06 07:17:16;;;;;;;1.80;0.83;;;20.90;99.90;;;;;;4956877;29;20193;-87
2021/09/06 07:19:46;;;;;;;0.70;0.70;;;21.00;99.90;;;;;;4957407;29;20197;-88
2021/09/06 07:22:11;;;;;;;1.70;0.87;;;21.00;99.90;;;;;;4954902;29;20220;-87
2021/09/06 07:24:37;;;;;;;2.20;0.77;;;21.10;99.90;;;;;;4955689;29;20583;-87
2021/09/06 07:27:03;;;;;;;0.70;0.67;;;21.30;99.90;;;;;;4972454;28;20200;-87
2021/09/06 07:29:28;;;;;;;2.30;1.30;;;21.40;99.90;;;;;;4954953;29;20200;-87
2021/09/06 07:31:54;;;;;;;1.50;0.73;;;21.60;99.90;;;;;;4955300;29;20665;-84
2021/09/06 07:34:19;;;;;;;1.23;1.00;;;21.70;99.90;;;;;;4954513;29;20221;-85
2021/09/06 07:36:45;;;;;;;1.27;0.90;;;21.70;99.90;;;;;;4964391;28;20280;-84
2021/09/06 07:39:12;;;;;;;1.57;0.90;;;21.90;99.90;;;;;;4955625;28;20196;-85
2021/09/06 07:41:38;;;;;;;18.43;1.60;;;22.00;99.90;;;;;;4955727;29;20220;-84
2021/09/06 07:44:04;;;;;;;0.47;0.47;;;22.20;99.90;;;;;;4945855;28;20705;-84
2021/09/06 07:46:29;;;;;;;5.20;2.13;;;22.30;99.90;;;;;;4954722;28;20694;-85
2021/09/06 07:48:55;;;;;;;0.87;0.50;;;22.40;99.90;;;;;;4953516;29;20186;-84
2021/09/06 07:51:21;;;;;;;1.33;1.20;;;22.50;99.90;;;;;;4955367;29;20195;-84
2021/09/06 07:53:47;;;;;;;0.43;0.33;;;22.60;99.90;;;;;;4953887;28;20185;-84
2021/09/06 07:56:12;;;;;;;1.67;0.93;;;22.70;99.90;;;;;;4954882;28;20197;-85
2021/09/06 07:58:38;;;;;;;0.73;0.73;;;22.90;99.90;;;;;;4954860;29;20193;-84
2021/09/06 08:01:03;;;;;;;1.70;1.07;;;22.90;99.90;;;;;;4955931;29;20666;-84
2021/09/06 08:03:29;;;;;;;1.20;1.10;;;22.70;99.90;;;;;;4957338;28;20190;-84
2021/09/06 08:05:55;;;;;;;2.73;0.70;;;22.60;99.90;;;;;;4956658;28;20212;-85
2021/09/06 08:08:20;;;;;;;1.20;1.20;;;22.80;99.90;;;;;;4957955;28;20220;-84
2021/09/06 08:10:46;;;;;;;0.67;0.67;;;23.00;99.90;;;;;;4955744;29;20193;-85
2021/09/06 08:13:12;;;;;;;3.73;0.73;;;23.10;99.90;;;;;;4954742;29;20196;-85
2021/09/06 08:15:37;;;;;;;1.63;0.80;;;23.40;99.90;;;;;;4954844;28;20275;-84
2021/09/06 08:18:06;;;;;;;1.50;0.90;;;23.50;99.90;;;;;;4956200;28;20196;-84
2021/09/06 08:20:32;;;;;;;1.40;1.30;;;23.30;99.90;;;;;;4955073;29;20671;-85
2021/09/06 08:22:58;;;;;;;2.23;1.30;;;22.80;99.90;;;;;;4954498;29;20189;-85
2021/09/06 08:25:23;;;;;;;0.93;0.93;;;22.50;99.90;;;;;;4954233;28;20243;-85
2021/09/06 08:27:49;;;;;;;1.23;1.13;;;22.80;99.90;;;;;;4954639;29;20646;-84
2021/09/06 08:30:17;;;;;;;0.50;0.50;;;22.90;99.90;;;;;;4954688;29;20213;-84
2021/09/06 08:32:44;;;;;;;0.90;0.90;;;23.30;99.90;;;;;;4954785;28;20560;-85
2021/09/06 08:35:10;;;;;;;2.20;0.90;;;23.60;99.90;;;;;;4954271;28;20205;-84
2021/09/06 08:37:36;;;;;;;0.93;0.93;;;23.90;99.90;;;;;;4954242;29;20216;-84
2021/09/06 08:40:05;;;;;;;1.63;1.17;;;24.20;99.90;;;;;;4954460;29;20181;-85
2021/09/06 08:42:30;;;;;;;3.00;1.67;;;23.60;99.90;;;;;;4954092;29;20219;-85
2021/09/06 08:44:56;;;;;;;1.00;0.90;;;23.50;99.90;;;;;;4954265;28;20205;-85
2021/09/06 08:47:22;;;;;;;3.47;1.20;;;23.90;99.90;;;;;;4954709;29;20188;-83
2021/09/06 08:49:49;;;;;;;1.47;1.23;;;24.00;99.90;;;;;;4953710;28;20189;-87
2021/09/06 08:52:14;;;;;;;1.50;0.77;;;24.20;99.90;;;;;;4954729;29;20575;-87
2021/09/06 08:54:41;;;;;;;1.60;1.10;;;24.50;99.90;;;;;;4954521;29;20691;-87
2021/09/06 08:57:07;;;;;;;0.80;0.80;;;24.50;99.90;;;;;;4955550;28;20697;-87
2021/09/06 08:59:33;;;;;;;1.30;1.20;;;24.60;99.90;;;;;;4954579;28;20622;-86
2021/09/06 09:01:59;;;;;;;1.40;1.30;;;24.30;99.90;;;;;;4955929;29;20208;-87
2021/09/06 09:04:27;;;;;;;3.90;1.40;;;24.10;99.90;;;;;;4954394;29;20224;-87
2021/09/06 09:06:58;;;;;;;2.27;1.23;;;24.50;99.90;;;;;;4954628;29;20181;-87
2021/09/06 09:09:36;;;;;;;0.57;0.57;;;24.60;99.90;;;;;;4954548;28;20191;-87
2021/09/06 09:12:18;;;;;;;1.57;1.03;;;24.90;99.90;;;;;;4954410;29;20181;-87
2021/09/06 09:14:49;;;;;;;1.27;1.00;;;24.80;99.90;;;;;;4954215;28;20208;-87
2021/09/06 09:17:16;;;;;;;1.63;1.37;;;25.30;99.90;;;;;;4954320;29;20192;-87
2021/09/06 09:19:42;;;;;;;1.53;1.30;;;24.60;99.90;;;;;;4954136;29;20193;-87
2021/09/06 09:22:11;;;;;;;2.13;1.13;;;24.90;99.90;;;;;;4955453;28;20205;-87
2021/09/06 09:24:37;;;;;;;1.93;0.97;;;25.20;99.90;;;;;;4953690;28;20208;-87
2021/09/06 09:27:07;;;;;;;1.47;1.37;;;25.30;99.90;;;;;;4954390;29;20186;-87
2021/09/06 09:29:34;;;;;;;3.00;2.33;;;25.30;99.90;;;;;;4955097;28;20203;-87
2021/09/06 09:32:08;;;;;;;3.57;1.80;;;25.60;99.90;;;;;;4955312;29;20216;-87
2021/09/06 09:34:42;;;;;;;1.47;1.37;;;25.40;99.90;;;;;;4953808;29;20209;-87
2021/09/06 09:37:08;;;;;;;5.13;1.43;;;25.80;99.90;;;;;;4955140;29;20566;-87
2021/09/06 09:39:35;;;;;;;2.23;1.03;;;26.00;99.90;;;;;;4953977;29;20189;-87
2021/09/06 09:42:11;;;;;;;1.70;1.60;;;25.80;99.90;;;;;;4953794;29;20201;-87
2021/09/06 09:44:44;;;;;;;1.63;1.53;;;25.30;99.90;;;;;;4955022;28;20588;-88
2021/09/06 09:47:10;;;;;;;1.73;1.00;;;25.10;99.90;;;;;;4953636;29;20556;-87
2021/09/06 09:49:37;;;;;;;2.20;1.00;;;25.40;99.90;;;;;;4945656;29;20193;-87
2021/09/06 09:52:06;;;;;;;0.90;0.77;;;26.00;99.90;;;;;;4952690;29;20193;-87
2021/09/06 09:54:33;;;;;;;0.60;0.60;;;26.10;99.90;;;;;;4969570;28;20209;-87
2021/09/06 09:56:59;;;;;;;2.67;1.30;;;26.30;99.90;;;;;;4954639;29;20220;-87
2021/09/06 09:59:24;;;;;;;1.27;1.10;;;26.60;99.90;;;;;;4950734;29;20643;-87
2021/09/06 10:02:22;;;;;;;1.43;1.20;;;26.80;99.90;;;;;;4953462;29;20209;-87
2021/09/06 10:04:51;;;;;;;1.20;0.90;;;27.10;99.90;;;;;;4953347;29;20558;-87
2021/09/06 10:07:18;;;;;;;0.93;0.80;;;27.00;99.90;;;;;;4953712;29;20667;-87
2021/09/06 10:09:46;;;;;;;1.33;1.23;;;26.80;99.90;;;;;;4953191;28;20235;-87
2021/09/06 10:12:25;;;;;;;1.13;1.13;;;26.90;99.90;;;;;;4953464;29;20259;-87
2021/09/06 10:14:56;;;;;;;1.73;1.40;;;27.10;99.90;;;;;;4953326;28;20231;-87
2021/09/06 10:17:35;;;;;;;0.83;0.83;;;27.30;99.90;;;;;;4953604;29;20197;-87
2021/09/06 10:20:23;;;;;;;2.13;1.30;;;27.40;99.90;;;;;;4977833;28;20192;-87
2021/09/06 10:23:02;;;;;;;0.70;0.63;;;26.90;99.90;;;;;;4952776;28;20642;-87
2021/09/06 10:25:30;;;;;;;1.27;1.00;;;26.90;99.90;;;;;;4953000;28;20208;-87
2021/09/06 10:28:02;;;;;;;1.47;1.07;;;26.40;99.90;;;;;;4954624;28;20754;-87
2021/09/06 10:30:42;;;;;;;1.07;0.97;;;26.50;99.90;;;;;;4952800;29;20204;-87
2021/09/06 10:33:33;;;;;;;2.37;1.03;;;27.00;99.90;;;;;;4946287;28;20276;-87
2021/09/06 10:36:10;;;;;;;2.50;1.77;;;27.30;99.90;;;;;;4952952;29;20271;-87
2021/09/06 10:38:38;;;;;;;1.17;1.00;;;26.80;99.90;;;;;;4954653;29;20199;-87
2021/09/06 10:41:18;;;;;;;1.80;1.00;;;27.20;99.90;;;;;;4952108;28;20288;-87
2021/09/06 10:43:47;;;;;;;1.10;1.00;;;27.70;99.90;;;;;;4952948;28;20177;-87
2021/09/06 10:46:13;;;;;;;1.20;0.87;;;28.10;99.90;;;;;;4949731;29;20177;-87
2021/09/06 10:48:38;;;;;;;0.97;0.87;;;28.40;99.90;;;;;;4953077;29;20228;-87
2021/09/06 10:51:04;;;;;;;0.95;0.95;;;28.50;99.90;;;;;;4953014;29;20237;-87
2021/09/06 10:53:30;;;;;;;0.93;0.73;;;28.50;99.90;;;;;;4954097;28;20221;-87
2021/09/06 10:55:58;;;;;;;1.67;1.30;;;28.40;99.90;;;;;;4952586;29;20296;-87
2021/09/06 10:58:26;;;;;;;2.30;0.80;;;28.50;99.90;;;;;;4952893;29;20354;-86
2021/09/06 11:00:54;;;;;;;0.52;0.40;;;28.80;99.90;;;;;;4954122;28;20259;-87
2021/09/06 11:03:21;;;;;;;1.80;0.90;;;28.80;99.90;;;;;;4951948;29;20181;-88
2021/09/06 11:05:55;;;;;;;1.27;0.97;;;28.90;99.90;;;;;;4951465;28;20284;-84
2021/09/06 11:08:28;;;;;;;1.35;0.98;;;29.10;99.90;;;;;;4952284;29;20186;-85
2021/09/06 11:10:56;;;;;;;0.98;0.80;;;28.80;99.90;;;;;;4953462;29;20189;-85
2021/09/06 11:13:22;;;;;;;1.42;1.00;;;28.80;99.90;;;;;;4965732;28;20265;-86
2021/09/06 11:15:49;;;;;;;1.23;0.85;;;29.00;99.90;;;;;;4947698;28;20223;-85
2021/09/06 11:18:14;;;;;;;0.68;0.65;;;29.20;99.90;;;;;;4951994;29;20605;-85
2021/09/06 11:20:44;;;;;;;1.75;1.10;;;29.20;99.90;;;;;;4951737;29;20205;-84
2021/09/06 11:23:10;;;;;;;1.42;1.33;;;28.80;99.90;;;;;;4950587;28;20185;-84
2021/09/06 11:25:42;;;;;;;1.25;1.15;;;27.90;99.90;;;;;;4952345;28;20867;-84
2021/09/06 11:28:14;;;;;;;0.87;0.87;;;27.30;99.90;;;;;;4956626;28;20240;-85
2021/09/06 11:30:42;;;;;;;3.10;1.67;;;27.80;99.90;;;;;;4955401;29;20225;-85
2021/09/06 11:33:10;;;;;;;1.73;1.40;;;27.60;99.90;;;;;;4958820;28;20187;-85
2021/09/06 11:35:37;;;;;;;2.28;1.15;;;27.50;99.90;;;;;;4971363;28;20209;-86
2021/09/06 11:38:04;;;;;;;0.60;0.60;;;27.80;99.90;;;;;;4955860;29;20231;-86
2021/09/06 11:40:30;;;;;;;2.65;1.50;;;28.20;99.90;;;;;;4954012;29;20560;-85
2021/09/06 11:42:58;;;;;;;1.25;1.15;;;28.50;99.90;;;;;;4956290;28;20181;-86
2021/09/06 11:45:25;;;;;;;1.10;0.73;;;28.30;99.90;;;;;;4956526;28;20200;-85
2021/09/06 11:47:51;;;;;;;1.73;1.50;;;28.70;99.90;;;;;;4953582;29;20554;-85
2021/09/06 11:50:20;;;;;;;1.17;1.08;;;28.80;99.90;;;;;;4952758;29;20189;-88
2021/09/06 11:52:46;;;;;;;1.80;1.70;;;28.10;99.90;;;;;;4952941;28;20655;-86
2021/09/06 11:55:20;;;;;;;1.33;1.23;;;27.80;99.90;;;;;;4970144;28;20205;-85
2021/09/06 11:57:47;;;;;;;0.70;0.70;;;27.70;99.90;;;;;;4954933;29;20607;-85
2021/09/06 12:00:17;;;;;;;0.77;0.68;;;28.00;99.90;;;;;;4955099;29;20177;-85
2021/09/06 12:02:56;;;;;;;2.63;1.80;;;28.40;99.90;;;;;;4952577;29;20185;-86
2021/09/06 12:05:21;;;;;;;0.47;0.47;;;28.00;99.90;;;;;;4954840;28;20205;-86
2021/09/06 12:07:53;;;;;;;1.15;0.82;;;28.60;99.90;;;;;;4954888;29;20192;-85
2021/09/06 12:10:47;;;;;;;1.50;0.90;;;29.10;99.90;;;;;;4954541;29;20268;-85
2021/09/06 12:13:16;;;;;;;1.17;1.08;;;29.40;99.90;;;;;;4953354;28;20280;-85
2021/09/06 12:15:59;;;;;;;0.88;0.85;;;29.40;99.90;;;;;;4954605;29;20255;-86
2021/09/06 12:18:46;;;;;;;0.85;0.70;;;29.40;99.90;;;;;;4955022;29;20185;-85
2021/09/06 12:21:17;;;;;;;1.15;1.15;;;29.80;99.90;;;;;;4954083;29;20222;-85
2021/09/06 12:23:46;;;;;;;1.10;1.00;;;29.60;99.90;;;;;;4955657;28;20596;-86
2021/09/06 12:26:14;;;;;;;1.25;1.05;;;28.50;99.90;;;;;;4954269;29;20224;-85
2021/09/06 12:29:06;;;;;;;2.45;0.88;;;28.50;99.90;;;;;;4955800;29;20533;-86
2021/09/06 12:31:40;;;;;;;0.73;0.70;;;29.00;99.90;;;;;;4948941;29;20204;-86
2021/09/06 12:34:06;;;;;;;1.10;1.05;;;29.90;99.90;;;;;;4953099;28;20200;-86
2021/09/06 12:36:31;;;;;;;1.55;1.13;;;30.30;99.90;;;;;;4954375;29;20694;-85
2021/09/06 12:38:57;;;;;;;0.85;0.85;;;30.60;99.90;;;;;;4954115;29;20185;-85
2021/09/06 12:41:22;;;;;;;1.40;1.08;;;30.90;99.90;;;;;;4955327;29;20291;-84
2021/09/06 12:43:48;;;;;;;1.55;1.20;;;30.90;99.90;;;;;;4955283;28;20192;-86
2021/09/06 12:46:14;;;;;;;0.80;0.80;;;31.00;99.90;;;;;;4955318;29;20188;-85
2021/09/06 12:48:39;;;;;;;1.35;1.20;;;30.80;99.90;;;;;;4955963;29;20184;-85